createdAt,value
2023-03-06T00:00:23.169Z,18.60
2023-03-06T00:02:52.129Z,17.73
2023-03-06T00:05:19.298Z,18.83
2023-03-06T00:07:46.097Z,15.18
2023-03-06T00:10:15.628Z,17.05
2023-03-06T00:12:42.767Z,17.45
2023-03-06T00:15:11.202Z,18.30
2023-03-06T00:17:38.518Z,20.60
2023-03-06T00:20:07.210Z,16.90
2023-03-06T00:22:34.236Z,17.67
2023-03-06T00:25:01.167Z,16.80
2023-03-06T00:27:27.946Z,19.10
2023-03-06T00:29:59.447Z,21.35
2023-03-06T00:32:27.510Z,18.77
2023-03-06T00:34:56.207Z,19.42
2023-03-06T00:37:24.761Z,20.63
2023-03-06T00:39:51.931Z,24.35
2023-03-06T00:42:20.174Z,23.00
2023-03-06T00:44:47.339Z,20.52
2023-03-06T00:47:17.267Z,19.23
2023-03-06T00:49:45.068Z,21.25
2023-03-06T00:52:13.283Z,18.52
2023-03-06T00:54:40.815Z,20.15
2023-03-06T00:57:08.088Z,19.85
2023-03-06T00:59:35.206Z,23.75
2023-03-06T01:02:02.628Z,21.75
2023-03-06T01:04:29.699Z,18.73
2023-03-06T01:06:56.527Z,19.08
2023-03-06T01:09:24.508Z,22.52
2023-03-06T01:11:53.996Z,14.77
2023-03-06T01:14:20.840Z,18.00
2023-03-06T01:16:48.249Z,19.20
2023-03-06T01:19:18.034Z,21.55
2023-03-06T01:21:45.594Z,17.73
2023-03-06T01:24:12.387Z,18.95
2023-03-06T01:26:39.342Z,19.77
2023-03-06T01:29:06.498Z,15.35
2023-03-06T01:31:33.717Z,17.23
2023-03-06T01:34:01.579Z,17.13
2023-03-06T01:36:28.384Z,17.30
2023-03-06T01:38:55.301Z,13.18
2023-03-06T01:41:22.147Z,13.02
2023-03-06T01:43:49.621Z,16.20
2023-03-06T01:46:28.482Z,13.40
2023-03-06T01:49:03.149Z,15.25
2023-03-06T01:51:38.969Z,12.13
2023-03-06T01:54:13.132Z,14.60
2023-03-06T01:56:44.397Z,18.27
2023-03-06T02:01:40.644Z,14.65
2023-03-06T02:04:08.937Z,16.27
2023-03-06T02:06:38.370Z,12.32
2023-03-06T02:09:06.212Z,18.10
2023-03-06T02:11:33.397Z,16.15
2023-03-06T02:14:00.472Z,12.82
2023-03-06T02:16:30.934Z,14.68
2023-03-06T02:19:00.608Z,16.13
2023-03-06T02:21:32.650Z,13.57
2023-03-06T02:24:08.453Z,9.98
2023-03-06T02:26:37.656Z,8.88
2023-03-06T02:29:08.156Z,9.37
2023-03-06T02:31:35.737Z,9.43
2023-03-06T02:34:28.244Z,10.30
2023-03-06T02:37:02.914Z,13.93
2023-03-06T02:39:33.684Z,12.15
2023-03-06T02:44:31.585Z,15.30
2023-03-06T02:46:58.600Z,15.98
2023-03-06T02:49:26.573Z,10.90
2023-03-06T02:51:53.510Z,17.05
2023-03-06T02:54:20.325Z,12.05
2023-03-06T02:56:47.177Z,13.98
2023-03-06T02:59:14.061Z,10.95
2023-03-06T03:01:40.936Z,19.60
2023-03-06T03:04:08.608Z,15.80
2023-03-06T03:06:36.153Z,13.85
2023-03-06T03:09:03.205Z,10.00
2023-03-06T03:11:30.113Z,14.75
2023-03-06T03:13:57.057Z,15.32
2023-03-06T03:16:26.264Z,11.80
2023-03-06T03:18:56.255Z,10.65
2023-03-06T03:21:24.288Z,14.73
2023-03-06T03:23:53.510Z,10.20
2023-03-06T03:26:21.704Z,9.90
2023-03-06T03:29:04.269Z,8.07
2023-03-06T03:31:32.667Z,7.03
2023-03-06T03:34:01.036Z,10.85
2023-03-06T03:36:30.482Z,8.52
2023-03-06T03:38:58.032Z,9.10
2023-03-06T03:41:25.349Z,7.15
2023-03-06T03:43:52.269Z,8.50
2023-03-06T03:46:21.530Z,7.10
2023-03-06T03:48:49.692Z,9.95
2023-03-06T03:51:17.303Z,6.72
2023-03-06T03:58:54.918Z,12.05
2023-03-06T04:01:22.760Z,12.27
2023-03-06T04:03:49.546Z,10.55
2023-03-06T04:06:17.798Z,8.10
2023-03-06T04:08:45.060Z,10.70
2023-03-06T04:11:12.373Z,8.90
2023-03-06T04:13:39.635Z,9.52
2023-03-06T04:16:06.952Z,8.45
2023-03-06T04:18:35.644Z,10.55
2023-03-06T04:21:05.508Z,10.45
2023-03-06T04:23:32.684Z,10.77
2023-03-06T04:25:59.829Z,10.50
2023-03-06T04:28:27.453Z,9.88
2023-03-06T04:30:54.347Z,11.68
2023-03-06T04:33:21.438Z,13.68
2023-03-06T04:35:48.591Z,14.98
2023-03-06T04:38:20.827Z,9.65
2023-03-06T04:40:49.766Z,12.95
2023-03-06T04:43:16.900Z,14.82
2023-03-06T04:45:43.894Z,13.52
2023-03-06T04:48:14.766Z,13.55
2023-03-06T04:50:41.926Z,15.65
2023-03-06T04:53:09.205Z,13.52
2023-03-06T04:55:35.961Z,11.68
2023-03-06T04:58:02.830Z,10.15
2023-03-06T05:00:33.267Z,12.25
2023-03-06T05:03:01.064Z,12.05
2023-03-06T05:05:28.514Z,12.40
2023-03-06T05:07:55.485Z,14.02
2023-03-06T05:10:22.712Z,13.60
2023-03-06T05:12:49.564Z,9.32
2023-03-06T05:15:16.941Z,10.45
2023-03-06T05:17:43.915Z,9.75
2023-03-06T05:20:12.067Z,10.23
2023-03-06T05:22:39.044Z,11.38
2023-03-06T05:25:06.540Z,9.32
2023-03-06T05:27:33.569Z,18.00
2023-03-06T05:30:00.467Z,12.80
2023-03-06T05:32:27.397Z,8.25
2023-03-06T05:34:54.302Z,9.35
2023-03-06T05:37:23.133Z,7.95
2023-03-06T05:39:51.029Z,10.88
2023-03-06T05:42:18.556Z,18.90
2023-03-06T05:44:45.443Z,17.50
2023-03-06T05:47:12.719Z,22.30
2023-03-06T05:49:39.630Z,16.40
2023-03-06T05:52:08.107Z,11.60
2023-03-06T05:54:37.222Z,16.00
2023-03-06T05:57:05.597Z,8.82
2023-03-06T05:59:33.729Z,11.52
2023-03-06T06:02:01.442Z,6.72
2023-03-06T06:04:28.657Z,10.98
2023-03-06T06:07:00.295Z,10.43
2023-03-06T06:09:28.213Z,10.40
2023-03-06T06:12:00.906Z,9.20
2023-03-06T06:14:28.872Z,9.48
2023-03-06T06:16:56.341Z,7.18
2023-03-06T06:19:23.574Z,6.18
2023-03-06T06:21:53.752Z,10.75
2023-03-06T06:24:23.331Z,6.72
2023-03-06T06:26:51.758Z,8.88
2023-03-06T06:29:18.513Z,8.65
2023-03-06T06:31:45.825Z,8.23
2023-03-06T06:34:13.222Z,8.13
2023-03-06T06:36:41.112Z,9.13
2023-03-06T06:39:09.405Z,9.13
2023-03-06T06:41:53.600Z,7.28
2023-03-06T06:44:23.078Z,8.95
2023-03-06T06:47:21.378Z,14.70
2023-03-06T06:49:37.350Z,8.45
2023-03-06T06:52:05.478Z,13.73
2023-03-06T06:54:34.298Z,8.65
2023-03-06T06:57:01.303Z,8.90
2023-03-06T06:59:28.112Z,7.53
2023-03-06T07:01:54.942Z,6.07
2023-03-06T07:04:21.851Z,10.63
2023-03-06T07:06:48.763Z,7.82
2023-03-06T07:09:16.122Z,7.25
2023-03-06T07:11:43.001Z,7.93
2023-03-06T07:14:09.927Z,8.10
2023-03-06T07:16:36.932Z,8.30
2023-03-06T07:19:03.822Z,10.70
2023-03-06T07:21:30.686Z,9.82
2023-03-06T07:23:57.741Z,14.80
2023-03-06T07:26:26.327Z,17.42
2023-03-06T07:28:53.877Z,11.85
2023-03-06T07:31:23.711Z,9.88
2023-03-06T07:33:52.448Z,8.40
2023-03-06T07:36:20.001Z,7.05
2023-03-06T07:38:46.933Z,5.85
2023-03-06T07:41:16.493Z,5.53
2023-03-06T07:43:45.118Z,8.68
2023-03-06T07:46:14.412Z,6.75
2023-03-06T07:48:42.192Z,7.38
2023-03-06T07:51:17.533Z,9.40
2023-03-06T07:53:45.307Z,6.53
2023-03-06T07:56:13.363Z,7.40
2023-03-06T07:58:43.102Z,7.35
2023-03-06T08:01:14.335Z,9.40
2023-03-06T08:03:41.585Z,19.30
2023-03-06T08:06:17.756Z,10.82
2023-03-06T08:08:46.212Z,6.28
2023-03-06T08:11:15.557Z,9.57
2023-03-06T08:13:42.902Z,8.15
2023-03-06T08:16:10.294Z,8.25
2023-03-06T08:18:39.824Z,6.38
2023-03-06T08:21:12.623Z,6.93
2023-03-06T08:23:40.298Z,6.97
2023-03-06T08:26:16.229Z,9.73
2023-03-06T08:28:43.792Z,7.18
2023-03-06T08:31:27.304Z,10.25
2023-03-06T08:33:55.051Z,7.15
2023-03-06T08:36:22.052Z,8.48
2023-03-06T08:38:48.877Z,10.05
2023-03-06T08:41:16.362Z,8.02
2023-03-06T08:43:43.388Z,7.60
2023-03-06T08:46:10.933Z,11.90
2023-03-06T08:48:38.457Z,13.85
2023-03-06T08:51:05.874Z,10.77
2023-03-06T08:53:42.743Z,10.10
2023-03-06T08:56:31.995Z,8.38
2023-03-06T08:59:00.789Z,8.77
2023-03-06T09:01:36.798Z,10.00
2023-03-06T09:04:06.753Z,8.23
2023-03-06T09:06:36.910Z,7.82
2023-03-06T09:09:05.105Z,7.05
2023-03-06T09:11:32.037Z,11.85
2023-03-06T09:13:59.401Z,8.50
2023-03-06T09:16:26.577Z,9.63
2023-03-06T09:18:54.395Z,11.30
2023-03-06T09:21:22.538Z,11.40
2023-03-06T09:23:50.007Z,14.88
2023-03-06T09:26:17.204Z,9.85
2023-03-06T09:28:44.371Z,8.90
2023-03-06T09:31:13.894Z,9.77
2023-03-06T09:33:40.940Z,15.85
2023-03-06T09:36:10.878Z,12.68
2023-03-06T09:38:37.841Z,18.63
2023-03-06T09:41:29.156Z,12.50
2023-03-06T09:44:21.276Z,9.98
2023-03-06T09:47:03.175Z,17.73
2023-03-06T09:50:05.458Z,14.10
2023-03-06T09:52:46.121Z,12.23
2023-03-06T09:55:28.904Z,16.42
2023-03-06T09:58:17.649Z,15.43
2023-03-06T10:01:22.089Z,14.48
2023-03-06T10:03:57.963Z,19.48
2023-03-06T10:06:30.405Z,12.20
2023-03-06T10:09:23.902Z,21.40
2023-03-06T10:12:04.046Z,14.50
2023-03-06T10:14:52.984Z,16.05
2023-03-06T10:17:22.558Z,13.10
2023-03-06T10:19:50.094Z,13.20
2023-03-06T10:22:38.695Z,19.13
2023-03-06T10:25:21.999Z,17.50
2023-03-06T10:28:02.802Z,13.77
2023-03-06T10:30:45.515Z,14.82
2023-03-06T10:33:27.469Z,17.20
2023-03-06T10:35:55.777Z,14.82
2023-03-06T10:38:23.961Z,14.50
2023-03-06T10:40:50.855Z,12.13
2023-03-06T10:43:17.654Z,9.88
2023-03-06T10:45:50.776Z,8.48
2023-03-06T10:48:21.177Z,11.60
2023-03-06T10:50:48.698Z,12.90
2023-03-06T10:53:29.102Z,10.73
2023-03-06T10:56:00.498Z,11.13
2023-03-06T11:01:19.291Z,12.93
2023-03-06T11:03:47.831Z,11.35
2023-03-06T11:06:37.814Z,13.23
2023-03-06T11:09:15.815Z,8.90
2023-03-06T11:11:42.994Z,9.85
2023-03-06T11:14:27.466Z,8.98
2023-03-06T11:16:54.589Z,8.73
2023-03-06T11:19:27.222Z,9.23
2023-03-06T11:22:06.871Z,12.60
2023-03-06T11:24:41.988Z,9.38
2023-03-06T11:27:35.117Z,9.38
2023-03-06T11:30:07.693Z,8.07
2023-03-06T11:32:46.310Z,9.90
2023-03-06T11:35:20.954Z,12.68
2023-03-06T11:38:11.401Z,14.52
2023-03-06T11:40:51.579Z,14.70
2023-03-06T11:43:23.627Z,18.25
2023-03-06T11:46:03.597Z,14.82
2023-03-06T11:48:46.696Z,14.40
2023-03-06T11:51:27.858Z,24.40
2023-03-06T11:53:57.406Z,18.95
2023-03-06T11:56:43.568Z,16.63
2023-03-06T11:59:44.250Z,13.25
2023-03-06T12:02:11.292Z,16.58
2023-03-06T12:04:47.143Z,16.10
2023-03-06T12:07:35.977Z,14.13
2023-03-06T12:10:19.055Z,16.85
2023-03-06T12:13:05.430Z,10.15
2023-03-06T12:15:53.970Z,14.95
2023-03-06T12:18:48.500Z,16.17
2023-03-06T12:21:31.584Z,28.92
2023-03-06T12:24:31.981Z,13.88
2023-03-06T12:27:05.121Z,14.85
2023-03-06T12:29:47.073Z,10.18
2023-03-06T12:32:55.498Z,14.82
2023-03-06T12:35:43.658Z,11.32
2023-03-06T12:38:23.872Z,9.65
2023-03-06T12:41:09.443Z,16.10
2023-03-06T12:44:05.634Z,16.30
2023-03-06T12:46:38.891Z,10.45
2023-03-06T12:49:31.428Z,12.25
2023-03-06T12:51:59.864Z,12.60
2023-03-06T12:54:30.782Z,12.30
2023-03-06T12:57:00.391Z,15.65
2023-03-06T12:59:48.223Z,11.30
2023-03-06T13:02:56.017Z,12.20
2023-03-06T13:05:33.747Z,9.90
2023-03-06T13:08:35.806Z,12.82
2023-03-06T13:11:21.208Z,10.65
2023-03-06T13:13:49.256Z,9.93
2023-03-06T13:16:16.179Z,10.38
2023-03-06T13:18:43.126Z,8.15
2023-03-06T13:21:46.052Z,11.18
2023-03-06T13:24:39.372Z,9.23
2023-03-06T13:27:12.634Z,8.88
2023-03-06T13:29:39.553Z,10.25
2023-03-06T13:32:17.747Z,9.20
2023-03-06T13:34:47.116Z,10.82
2023-03-06T13:37:13.842Z,10.70
2023-03-06T13:40:04.018Z,8.82
2023-03-06T13:43:09.287Z,17.63
2023-03-06T13:45:43.320Z,12.98
2023-03-06T13:48:47.643Z,11.25
2023-03-06T13:51:28.180Z,17.77
2023-03-06T13:53:58.000Z,9.80
2023-03-06T13:56:49.775Z,14.43
2023-03-06T13:59:35.957Z,16.10
2023-03-06T14:02:51.086Z,12.82
2023-03-06T14:05:19.335Z,11.98
2023-03-06T14:07:49.422Z,15.02
2023-03-06T14:10:25.011Z,12.85
2023-03-06T14:12:51.961Z,12.43
2023-03-06T14:15:42.287Z,9.18
2023-03-06T14:18:23.900Z,11.40
2023-03-06T14:23:42.576Z,10.90
2023-03-06T14:26:22.170Z,16.02
2023-03-06T14:29:22.587Z,10.85
2023-03-06T14:31:52.303Z,14.38
2023-03-06T14:34:33.303Z,11.20
2023-03-06T14:37:03.109Z,12.52
2023-03-06T14:39:34.320Z,10.20
2023-03-06T14:44:49.257Z,16.02
2023-03-06T14:47:29.937Z,11.85
2023-03-06T14:50:24.514Z,16.20
2023-03-06T14:53:03.411Z,13.45
2023-03-06T14:55:34.583Z,12.05
2023-03-06T14:58:16.826Z,10.05
2023-03-06T15:00:49.550Z,11.23
2023-03-06T15:03:21.529Z,13.38
2023-03-06T15:05:49.784Z,10.52
2023-03-06T15:08:25.413Z,19.15
2023-03-06T15:11:01.221Z,21.83
2023-03-06T15:13:29.868Z,19.00
2023-03-06T15:16:05.382Z,34.72
2023-03-06T15:18:35.845Z,18.08
2023-03-06T15:21:10.416Z,26.23
2023-03-06T15:23:43.027Z,16.58
2023-03-06T15:26:34.127Z,16.08
2023-03-06T15:29:22.784Z,50.33
2023-03-06T15:31:51.854Z,42.10
2023-03-06T15:34:23.920Z,17.70
2023-03-06T15:36:54.327Z,17.42
2023-03-06T15:39:39.884Z,21.50
2023-03-06T15:42:19.169Z,17.73
2023-03-06T15:45:03.697Z,23.35
2023-03-06T15:47:31.164Z,28.95
2023-03-06T15:49:59.201Z,21.52
2023-03-06T15:52:26.037Z,21.05
2023-03-06T15:54:52.818Z,18.98
2023-03-06T15:57:26.586Z,34.55
2023-03-06T15:59:54.274Z,21.48
2023-03-06T16:02:23.180Z,46.03
2023-03-06T16:04:51.428Z,52.25
2023-03-06T16:07:18.478Z,61.92
2023-03-06T16:09:46.888Z,56.67
2023-03-06T16:12:21.672Z,55.08
2023-03-06T16:14:49.357Z,90.95
2023-03-06T16:17:17.190Z,77.55
2023-03-06T16:19:45.063Z,67.07
2023-03-06T16:22:11.862Z,100.22
2023-03-06T16:24:38.736Z,84.70
2023-03-06T16:27:07.191Z,87.57
2023-03-06T16:29:35.163Z,85.28
2023-03-06T16:32:02.584Z,96.78
2023-03-06T16:34:29.902Z,94.05
2023-03-06T16:36:56.678Z,60.65
2023-03-06T16:39:24.413Z,50.70
2023-03-06T16:41:51.427Z,57.20
2023-03-06T16:44:19.954Z,65.80
2023-03-06T16:46:49.068Z,82.38
2023-03-06T16:49:21.400Z,126.95
2023-03-06T16:51:49.085Z,207.95
2023-03-06T16:54:15.936Z,120.82
2023-03-06T16:56:43.625Z,154.93
2023-03-06T16:59:11.120Z,264.88
2023-03-06T17:01:40.798Z,261.60
2023-03-06T17:04:08.478Z,181.38
2023-03-06T17:06:35.495Z,224.10
2023-03-06T17:09:02.426Z,263.38
2023-03-06T17:11:29.714Z,258.88
2023-03-06T17:13:56.752Z,294.92
2023-03-06T17:16:23.523Z,270.23
2023-03-06T17:18:50.864Z,239.35
2023-03-06T17:21:17.845Z,208.10
2023-03-06T17:23:45.059Z,184.23
2023-03-06T17:26:15.290Z,98.70
2023-03-06T17:28:42.616Z,167.85
2023-03-06T17:31:17.418Z,98.78
2023-03-06T17:33:44.556Z,87.57
2023-03-06T17:36:14.353Z,71.20
2023-03-06T17:38:42.352Z,128.18
2023-03-06T17:41:10.355Z,149.95
2023-03-06T17:43:39.113Z,138.65
2023-03-06T17:46:13.058Z,114.03
2023-03-06T17:48:40.133Z,84.32
2023-03-06T17:51:07.517Z,94.18
2023-03-06T17:53:35.310Z,103.65
2023-03-06T17:56:07.863Z,97.80
2023-03-06T17:58:35.153Z,139.40
2023-03-06T18:01:18.100Z,121.70
2023-03-06T18:03:46.966Z,69.38
2023-03-06T18:06:15.026Z,45.38
2023-03-06T18:08:42.587Z,55.22
2023-03-06T18:11:11.054Z,51.60
2023-03-06T18:13:40.246Z,63.42
2023-03-06T18:16:08.040Z,80.63
2023-03-06T18:18:35.841Z,87.68
2023-03-06T18:21:11.500Z,90.03
2023-03-06T18:23:39.392Z,45.42
2023-03-06T18:26:11.763Z,26.17
2023-03-06T18:28:42.465Z,24.23
2023-03-06T18:31:18.588Z,37.00
2023-03-06T18:33:48.511Z,47.95
2023-03-06T18:36:15.693Z,36.00
2023-03-06T18:38:44.062Z,41.85
2023-03-06T18:41:11.937Z,42.05
2023-03-06T18:43:39.370Z,52.13
2023-03-06T18:46:06.885Z,54.67
2023-03-06T18:48:33.786Z,56.85
2023-03-06T18:51:08.586Z,69.45
2023-03-06T18:53:36.259Z,40.35
2023-03-06T18:56:03.575Z,33.35
2023-03-06T18:58:30.558Z,30.75
2023-03-06T19:00:59.314Z,39.70
2023-03-06T19:03:26.656Z,32.35
2023-03-06T19:05:53.599Z,33.65
2023-03-06T19:08:20.652Z,55.15
2023-03-06T19:10:47.563Z,65.07
2023-03-06T19:13:14.841Z,62.45
2023-03-06T19:15:44.139Z,64.53
2023-03-06T19:18:13.296Z,67.10
2023-03-06T19:20:40.240Z,81.72
2023-03-06T19:23:07.711Z,52.80
2023-03-06T19:25:34.590Z,29.73
2023-03-06T19:28:01.581Z,18.58
2023-03-06T19:30:28.600Z,32.80
2023-03-06T19:32:58.807Z,42.78
2023-03-06T19:35:27.286Z,32.72
2023-03-06T19:37:54.208Z,31.83
2023-03-06T19:40:21.105Z,38.13
2023-03-06T19:42:48.168Z,33.88
2023-03-06T19:45:15.199Z,34.60
2023-03-06T19:47:41.949Z,38.55
2023-03-06T19:50:09.705Z,35.33
2023-03-06T19:52:38.385Z,38.30
2023-03-06T19:55:06.102Z,50.72
2023-03-06T19:57:32.932Z,37.63
2023-03-06T19:59:59.805Z,43.08
2023-03-06T20:02:27.382Z,46.08
2023-03-06T20:04:55.086Z,83.80
2023-03-06T20:07:22.423Z,51.65
2023-03-06T20:09:50.153Z,51.03
2023-03-06T20:12:17.322Z,43.50
2023-03-06T20:14:46.141Z,43.35
2023-03-06T20:17:13.071Z,37.00
2023-03-06T20:19:40.024Z,32.65
2023-03-06T20:22:06.966Z,28.05
2023-03-06T20:24:33.802Z,38.70
2023-03-06T20:27:00.954Z,50.55
2023-03-06T20:29:28.499Z,57.80
2023-03-06T20:31:57.534Z,68.18
2023-03-06T20:34:26.103Z,82.38
2023-03-06T20:36:53.372Z,78.63
2023-03-06T20:39:24.018Z,86.53
2023-03-06T20:41:51.227Z,77.20
2023-03-06T20:44:20.073Z,80.15
2023-03-06T20:46:47.132Z,125.03
2023-03-06T20:49:14.413Z,129.15
2023-03-06T20:51:42.055Z,124.05
2023-03-06T20:54:11.675Z,86.50
2023-03-06T20:56:39.854Z,72.05
2023-03-06T20:59:08.757Z,67.40
2023-03-06T21:01:38.537Z,64.35
2023-03-06T21:04:05.648Z,52.40
2023-03-06T21:06:32.560Z,58.85
2023-03-06T21:09:01.125Z,54.67
2023-03-06T21:11:28.999Z,54.70
2023-03-06T21:13:56.895Z,57.63
2023-03-06T21:16:26.639Z,37.03
2023-03-06T21:18:58.293Z,21.25
2023-03-06T21:21:28.689Z,25.27
2023-03-06T21:23:55.912Z,25.73
2023-03-06T21:26:25.231Z,25.67
2023-03-06T21:28:52.777Z,37.47
2023-03-06T21:31:21.453Z,30.33
2023-03-06T21:33:50.008Z,41.70
2023-03-06T21:36:18.719Z,32.15
2023-03-06T21:38:47.764Z,37.28
2023-03-06T21:41:20.429Z,35.30
2023-03-06T21:43:47.711Z,32.30
2023-03-06T21:46:14.799Z,39.63
2023-03-06T21:48:41.883Z,32.28
2023-03-06T21:51:15.908Z,25.83
2023-03-06T21:53:44.188Z,24.48
2023-03-06T21:56:12.708Z,24.92
2023-03-06T21:58:39.893Z,26.85
2023-03-06T22:01:17.690Z,35.03
2023-03-06T22:03:45.031Z,25.17
2023-03-06T22:06:17.685Z,34.70
2023-03-06T22:08:44.648Z,34.47
2023-03-06T22:11:23.003Z,38.20
2023-03-06T22:13:50.617Z,38.20
2023-03-06T22:16:18.351Z,27.80
2023-03-06T22:18:46.904Z,22.42
2023-03-06T22:21:15.949Z,36.63
2023-03-06T22:23:43.310Z,31.90
2023-03-06T22:26:12.764Z,24.25
2023-03-06T22:28:41.289Z,28.23
2023-03-06T22:31:19.787Z,36.63
2023-03-06T22:33:47.497Z,41.45
2023-03-06T22:36:15.688Z,40.03
2023-03-06T22:38:45.074Z,37.67
2023-03-06T22:41:13.632Z,46.72
2023-03-06T22:43:41.123Z,45.38
2023-03-06T22:46:11.827Z,29.73
2023-03-06T22:48:41.212Z,42.35
2023-03-06T22:51:13.803Z,60.97
2023-03-06T22:53:41.132Z,44.80
2023-03-06T22:56:11.149Z,37.08
2023-03-06T22:58:38.921Z,24.27
2023-03-06T23:01:06.567Z,28.35
2023-03-06T23:03:33.487Z,27.65
2023-03-06T23:06:00.476Z,34.13
2023-03-06T23:08:27.525Z,32.75
2023-03-06T23:10:54.249Z,19.45
2023-03-06T23:13:40.418Z,24.70
2023-03-06T23:16:26.019Z,20.52
2023-03-06T23:19:11.660Z,21.08
2023-03-06T23:21:57.211Z,21.25
2023-03-06T23:24:42.945Z,23.50
2023-03-06T23:27:09.808Z,24.98
2023-03-06T23:29:36.579Z,23.42
2023-03-06T23:32:03.801Z,22.25
2023-03-06T23:34:30.991Z,21.65
2023-03-06T23:36:58.166Z,18.23
2023-03-06T23:39:25.107Z,18.73
2023-03-06T23:41:52.029Z,16.20
2023-03-06T23:44:18.948Z,20.95
2023-03-06T23:46:45.814Z,18.40
2023-03-06T23:49:12.970Z,16.98
2023-03-06T23:51:39.802Z,21.13
2023-03-06T23:54:07.091Z,22.98
2023-03-06T23:56:33.932Z,21.35
2023-03-06T23:59:00.850Z,30.52
